Time;durP1;ratioP1;P1;durP2;ratioP2;P2;SDS_P1;SDS_P2;PMS_P1;PMS_P2;Temp;Humidity;BMP_temperature;BMP_pressure;BME280_temperature;BME280_humidity;BME280_pressure;Samples;Min_cycle;Max_cycle;Signal;HPM_P1;HPM_P2
2022/08/31 00:04:01;;;;;;;;;;;25.20;43.00;;;;;;5110383;28;19919;-62
2022/08/31 00:06:33;;;;;;;;;;;25.20;43.20;;;;;;5111559;28;20303;-63
2022/08/31 00:08:59;;;;;;;;;;;25.20;43.20;;;;;;5087819;28;19916;-62
2022/08/31 00:11:29;;;;;;;;;;;25.20;43.10;;;;;;5076946;28;19918;-62
2022/08/31 00:13:55;;;;;;;;;;;25.20;43.10;;;;;;5093099;28;20287;-62
2022/08/31 00:16:21;;;;;;;;;;;25.10;43.20;;;;;;5088391;28;20011;-62
2022/08/31 00:18:51;;;;;;;;;;;25.20;43.10;;;;;;5105500;28;20010;-62
2022/08/31 00:21:17;;;;;;;;;;;25.20;43.20;;;;;;5111879;28;19908;-62
2022/08/31 00:23:42;;;;;;;;;;;25.30;43.20;;;;;;5111471;28;19931;-63
2022/08/31 00:26:08;;;;;;;;;;;25.20;43.10;;;;;;5106690;28;20379;-62
2022/08/31 00:28:33;;;;;;;;;;;25.20;43.00;;;;;;5093301;28;19980;-62
2022/08/31 00:30:59;;;;;;;;;;;25.20;43.10;;;;;;5110794;28;19916;-62
2022/08/31 00:33:24;;;;;;;;;;;25.20;43.20;;;;;;5111938;28;19911;-62
2022/08/31 00:35:50;;;;;;;;;;;25.20;43.00;;;;;;5110198;28;19959;-62
2022/08/31 00:38:15;;;;;;;;;;;25.20;43.20;;;;;;5106417;28;19920;-62
2022/08/31 00:40:42;;;;;;;;;;;25.20;43.10;;;;;;5107076;28;19951;-62
2022/08/31 00:43:07;;;;;;;;;;;25.20;43.10;;;;;;5086103;28;19969;-62
2022/08/31 00:45:32;;;;;;;;;;;25.20;43.20;;;;;;5091810;28;19907;-62
2022/08/31 00:47:58;;;;;;;;;;;25.20;43.20;;;;;;5115004;28;20002;-62
2022/08/31 00:50:23;;;;;;;;;;;25.20;43.20;;;;;;5097401;28;19915;-62
2022/08/31 00:52:58;;;;;;;;;;;25.10;43.20;;;;;;5114978;28;19919;-62
2022/08/31 00:55:28;;;;;;;;;;;25.20;43.30;;;;;;5086324;28;19912;-62
2022/08/31 00:57:54;;;;;;;;;;;25.10;43.10;;;;;;5097563;28;19984;-62
2022/08/31 01:00:21;;;;;;;;;;;25.10;43.20;;;;;;5109617;28;19969;-62
2022/08/31 01:02:46;;;;;;;;;;;25.10;43.20;;;;;;5115283;28;20367;-62
2022/08/31 01:05:12;;;;;;;;;;;25.10;43.20;;;;;;5114918;28;20003;-62
2022/08/31 01:07:37;;;;;;;;;;;25.20;43.20;;;;;;5096233;28;19908;-62
2022/08/31 01:10:03;;;;;;;;;;;25.10;43.20;;;;;;5113571;28;19920;-62
2022/08/31 01:12:29;;;;;;;;;;;25.10;43.20;;;;;;5095646;28;19922;-62
2022/08/31 01:14:54;;;;;;;;;;;25.10;43.20;;;;;;5079495;28;19964;-62
2022/08/31 01:17:19;;;;;;;;;;;25.10;43.20;;;;;;5091752;28;19982;-62
2022/08/31 01:19:48;;;;;;;;;;;25.10;43.20;;;;;;5114787;28;20003;-62
2022/08/31 01:22:49;;;;;;;;;;;25.10;43.20;;;;;;5095969;28;20373;-62
2022/08/31 01:25:15;;;;;;;;;;;25.00;43.20;;;;;;5070056;28;19952;-62
2022/08/31 01:27:40;;;;;;;;;;;25.10;43.20;;;;;;5086864;28;19962;-62
2022/08/31 01:30:09;;;;;;;;;;;25.00;43.20;;;;;;5112185;28;20340;-62
2022/08/31 01:32:34;;;;;;;;;;;25.00;43.30;;;;;;5114872;28;19911;-62
2022/08/31 01:35:00;;;;;;;;;;;25.00;43.40;;;;;;5095384;28;20324;-62
2022/08/31 01:37:25;;;;;;;;;;;25.00;43.40;;;;;;5109234;28;19911;-63
2022/08/31 01:39:51;;;;;;;;;;;24.90;43.40;;;;;;5104893;28;20302;-62
2022/08/31 01:42:16;;;;;;;;;;;25.00;43.50;;;;;;5077548;28;20279;-62
2022/08/31 01:44:42;;;;;;;;;;;25.00;43.50;;;;;;5095499;28;19908;-62
2022/08/31 01:47:07;;;;;;;;;;;25.00;43.50;;;;;;5114790;28;19908;-62
2022/08/31 01:49:33;;;;;;;;;;;25.00;43.40;;;;;;5079449;28;19907;-62
2022/08/31 01:51:58;;;;;;;;;;;25.00;43.50;;;;;;5112429;28;19915;-62
2022/08/31 01:54:26;;;;;;;;;;;25.00;43.40;;;;;;5090257;28;19919;-62
2022/08/31 01:56:51;;;;;;;;;;;25.00;43.30;;;;;;5094302;28;20002;-62
2022/08/31 01:59:17;;;;;;;;;;;25.00;43.40;;;;;;5114362;28;19939;-62
2022/08/31 02:01:44;;;;;;;;;;;25.00;43.40;;;;;;5114519;28;19914;-62
2022/08/31 02:04:10;;;;;;;;;;;24.90;43.40;;;;;;5113224;28;19973;-62
2022/08/31 02:06:35;;;;;;;;;;;25.00;43.50;;;;;;5095387;28;19907;-62
2022/08/31 02:09:01;;;;;;;;;;;25.00;43.50;;;;;;5094639;28;20002;-62
2022/08/31 02:11:26;;;;;;;;;;;24.90;43.40;;;;;;5090439;28;19912;-62
2022/08/31 02:13:52;;;;;;;;;;;24.90;43.50;;;;;;5112024;28;19911;-62
2022/08/31 02:16:17;;;;;;;;;;;24.90;43.50;;;;;;5092130;28;20249;-62
2022/08/31 02:18:43;;;;;;;;;;;24.90;43.60;;;;;;5095583;28;20120;-62
2022/08/31 02:21:08;;;;;;;;;;;24.90;43.60;;;;;;5113675;28;19915;-62
2022/08/31 02:23:33;;;;;;;;;;;24.80;43.60;;;;;;5113740;28;19911;-62
2022/08/31 02:25:59;;;;;;;;;;;24.80;43.70;;;;;;5113647;28;19911;-62
2022/08/31 02:28:24;;;;;;;;;;;24.80;43.60;;;;;;5112686;28;20298;-62
2022/08/31 02:30:50;;;;;;;;;;;24.80;43.50;;;;;;5089891;28;19912;-62
2022/08/31 02:33:16;;;;;;;;;;;24.80;43.50;;;;;;5095452;28;20291;-62
2022/08/31 02:35:42;;;;;;;;;;;24.80;43.60;;;;;;5112831;28;19927;-62
2022/08/31 02:38:07;;;;;;;;;;;24.80;43.70;;;;;;5113412;28;19912;-62
2022/08/31 02:40:37;;;;;;;;;;;24.80;43.70;;;;;;5094531;28;20454;-62
2022/08/31 02:43:06;;;;;;;;;;;24.80;43.60;;;;;;5096053;28;20260;-62
2022/08/31 02:45:31;;;;;;;;;;;24.80;43.70;;;;;;5112242;28;19916;-62
2022/08/31 02:47:56;;;;;;;;;;;24.80;43.70;;;;;;5089456;28;19923;-62
2022/08/31 02:50:22;;;;;;;;;;;24.80;43.70;;;;;;5113072;28;19908;-63
2022/08/31 02:52:48;;;;;;;;;;;24.70;43.60;;;;;;5093997;28;19965;-62
2022/08/31 02:55:14;;;;;;;;;;;24.70;43.60;;;;;;5094668;28;19923;-62
2022/08/31 02:57:39;;;;;;;;;;;24.70;43.70;;;;;;5113285;28;19908;-62
2022/08/31 03:00:05;;;;;;;;;;;24.70;43.60;;;;;;5094993;28;19907;-62
2022/08/31 03:02:32;;;;;;;;;;;24.70;43.70;;;;;;5111894;28;20434;-62
2022/08/31 03:04:58;;;;;;;;;;;24.70;43.70;;;;;;5104893;28;19995;-62
2022/08/31 03:07:24;;;;;;;;;;;24.70;43.60;;;;;;5106522;28;20383;-62
2022/08/31 03:09:49;;;;;;;;;;;24.70;43.70;;;;;;5112492;28;19922;-62
2022/08/31 03:12:15;;;;;;;;;;;24.70;43.70;;;;;;5094572;28;19962;-62
2022/08/31 03:14:40;;;;;;;;;;;24.70;43.80;;;;;;5069194;28;19931;-62
2022/08/31 03:17:06;;;;;;;;;;;24.70;43.80;;;;;;5092552;28;19908;-62
2022/08/31 03:19:33;;;;;;;;;;;24.70;43.80;;;;;;5074485;28;19908;-62
2022/08/31 03:21:58;;;;;;;;;;;24.70;43.80;;;;;;5081949;28;20472;-62
2022/08/31 03:24:24;;;;;;;;;;;24.70;43.80;;;;;;5090282;28;20038;-62
2022/08/31 03:26:49;;;;;;;;;;;24.70;43.80;;;;;;5057592;28;20167;-62
2022/08/31 03:29:15;;;;;;;;;;;24.70;43.80;;;;;;5073980;28;20422;-62
2022/08/31 03:31:40;;;;;;;;;;;24.70;43.90;;;;;;5092336;28;19912;-61
2022/08/31 03:34:06;;;;;;;;;;;24.70;43.90;;;;;;5090643;28;20213;-62
2022/08/31 03:36:31;;;;;;;;;;;24.60;43.90;;;;;;5090778;28;19909;-62
2022/08/31 03:38:57;;;;;;;;;;;24.70;43.90;;;;;;5091155;28;19912;-62
2022/08/31 03:41:23;;;;;;;;;;;24.70;43.90;;;;;;5068658;28;19916;-62
2022/08/31 03:43:48;;;;;;;;;;;24.60;43.90;;;;;;5069540;28;19912;-62
2022/08/31 03:46:13;;;;;;;;;;;24.70;44.00;;;;;;5091862;28;19965;-62
2022/08/31 03:48:39;;;;;;;;;;;24.70;44.00;;;;;;5091007;28;19931;-62
2022/08/31 03:51:05;;;;;;;;;;;24.70;44.00;;;;;;5086174;28;20272;-62
2022/08/31 03:53:30;;;;;;;;;;;24.70;44.00;;;;;;5091484;28;19912;-62
2022/08/31 03:56:00;;;;;;;;;;;24.60;44.00;;;;;;5071366;28;19962;-62
2022/08/31 03:58:27;;;;;;;;;;;24.60;44.00;;;;;;5051797;28;19912;-62
2022/08/31 04:00:53;;;;;;;;;;;24.50;44.00;;;;;;5073479;28;19935;-62
2022/08/31 04:03:18;;;;;;;;;;;24.50;44.00;;;;;;5073605;28;19974;-62
2022/08/31 04:05:43;;;;;;;;;;;24.50;44.00;;;;;;5091137;28;19927;-62
2022/08/31 04:08:09;;;;;;;;;;;24.50;44.00;;;;;;5090337;28;19919;-62
2022/08/31 04:10:37;;;;;;;;;;;24.50;44.00;;;;;;5089592;28;20337;-62
2022/08/31 04:13:02;;;;;;;;;;;24.60;44.00;;;;;;5091058;28;19908;-62
2022/08/31 04:15:27;;;;;;;;;;;24.50;44.00;;;;;;5078713;28;19924;-62
2022/08/31 04:17:53;;;;;;;;;;;24.60;44.10;;;;;;5084373;28;19949;-62
2022/08/31 04:20:18;;;;;;;;;;;24.50;43.90;;;;;;5091071;28;19943;-62
2022/08/31 04:22:44;;;;;;;;;;;24.60;44.00;;;;;;5090625;28;19919;-62
2022/08/31 04:25:09;;;;;;;;;;;24.60;44.10;;;;;;5089620;28;19999;-62
2022/08/31 04:27:36;;;;;;;;;;;24.50;44.00;;;;;;5091279;28;19912;-62
2022/08/31 04:30:03;;;;;;;;;;;24.60;44.10;;;;;;5061421;28;19908;-62
2022/08/31 04:32:28;;;;;;;;;;;24.50;44.00;;;;;;5082157;28;19951;-62
2022/08/31 04:34:54;;;;;;;;;;;24.50;44.00;;;;;;5091214;28;19970;-62
2022/08/31 04:37:19;;;;;;;;;;;24.50;44.00;;;;;;5089394;28;20401;-62
2022/08/31 04:39:45;;;;;;;;;;;24.50;44.10;;;;;;5088109;28;19912;-62
2022/08/31 04:42:11;;;;;;;;;;;24.50;44.10;;;;;;5091187;28;19908;-62
2022/08/31 04:44:37;;;;;;;;;;;24.50;44.10;;;;;;5090051;28;19914;-61
2022/08/31 04:47:02;;;;;;;;;;;24.50;44.10;;;;;;5086271;28;19908;-62
2022/08/31 04:49:28;;;;;;;;;;;24.50;44.10;;;;;;5086094;28;20195;-62
2022/08/31 04:51:53;;;;;;;;;;;24.50;44.10;;;;;;5091012;28;19923;-62
2022/08/31 04:54:19;;;;;;;;;;;24.50;44.30;;;;;;5081396;28;20009;-62
2022/08/31 04:56:44;;;;;;;;;;;24.50;44.30;;;;;;5087553;28;20336;-62
2022/08/31 04:59:11;;;;;;;;;;;24.40;44.20;;;;;;5089868;28;19920;-62
2022/08/31 05:01:37;;;;;;;;;;;24.40;44.20;;;;;;5091054;28;19915;-62
2022/08/31 05:04:03;;;;;;;;;;;24.40;44.10;;;;;;5085794;28;19958;-62
2022/08/31 05:06:29;;;;;;;;;;;24.50;44.20;;;;;;5081394;28;19952;-62
2022/08/31 05:08:59;;;;;;;;;;;24.40;44.10;;;;;;5078530;28;19920;-62
2022/08/31 05:11:25;;;;;;;;;;;24.40;44.20;;;;;;5080402;28;20359;-62
2022/08/31 05:13:51;;;;;;;;;;;24.40;44.20;;;;;;5088885;28;19947;-62
2022/08/31 05:16:17;;;;;;;;;;;24.40;44.30;;;;;;5073056;28;20421;-62
2022/08/31 05:18:43;;;;;;;;;;;24.40;44.30;;;;;;5072740;28;19912;-62
2022/08/31 05:21:12;;;;;;;;;;;24.40;44.30;;;;;;5066825;28;19912;-62
2022/08/31 05:23:37;;;;;;;;;;;24.40;44.30;;;;;;5063817;28;19912;-62
2022/08/31 05:26:03;;;;;;;;;;;24.40;44.40;;;;;;5090595;28;19912;-62
2022/08/31 05:28:28;;;;;;;;;;;24.40;44.40;;;;;;5093413;28;20117;-62
2022/08/31 05:30:56;;;;;;;;;;;24.40;44.30;;;;;;5094690;28;19993;-62
2022/08/31 05:33:22;;;;;;;;;;;24.40;44.30;;;;;;5090479;28;19977;-62
2022/08/31 05:35:47;;;;;;;;;;;24.40;44.50;;;;;;5093564;28;20380;-62
2022/08/31 05:38:12;;;;;;;;;;;24.40;44.50;;;;;;5066102;28;19913;-62
2022/08/31 05:40:38;;;;;;;;;;;24.40;44.50;;;;;;5091721;28;19941;-62
2022/08/31 05:43:03;;;;;;;;;;;24.30;44.50;;;;;;5073141;28;20020;-62
2022/08/31 05:45:29;;;;;;;;;;;24.30;44.50;;;;;;5091285;28;19919;-62
2022/08/31 05:47:54;;;;;;;;;;;24.30;44.50;;;;;;5093260;28;20367;-62
2022/08/31 05:50:20;;;;;;;;;;;24.30;44.50;;;;;;5094087;28;20006;-62
2022/08/31 05:52:45;;;;;;;;;;;24.30;44.50;;;;;;5093501;28;19908;-62
2022/08/31 05:55:11;;;;;;;;;;;24.30;44.50;;;;;;5069913;28;19913;-62
2022/08/31 05:57:39;;;;;;;;;;;24.30;44.60;;;;;;5075472;28;19956;-62
2022/08/31 06:00:08;;;;;;;;;;;24.30;44.60;;;;;;5093795;28;20008;-62
2022/08/31 06:02:34;;;;;;;;;;;24.30;44.60;;;;;;5092758;28;19931;-62
2022/08/31 06:04:59;;;;;;;;;;;24.30;44.80;;;;;;5073880;28;19916;-62
2022/08/31 06:07:25;;;;;;;;;;;24.30;44.70;;;;;;5075056;28;19939;-62
2022/08/31 06:09:50;;;;;;;;;;;24.30;44.80;;;;;;5086029;28;19916;-62
2022/08/31 06:12:18;;;;;;;;;;;24.30;44.90;;;;;;5067808;28;19913;-62
2022/08/31 06:14:44;;;;;;;;;;;24.30;44.80;;;;;;5078106;28;20313;-62
2022/08/31 06:17:09;;;;;;;;;;;24.30;44.90;;;;;;5111533;28;19920;-62
2022/08/31 06:19:36;;;;;;;;;;;24.30;44.90;;;;;;5113863;28;20332;-62
2022/08/31 06:22:01;;;;;;;;;;;24.30;45.00;;;;;;5113891;28;19935;-62
2022/08/31 06:24:27;;;;;;;;;;;24.30;45.00;;;;;;5113448;28;20268;-62
2022/08/31 06:26:55;;;;;;;;;;;24.20;45.00;;;;;;5108750;28;19920;-62
2022/08/31 06:29:20;;;;;;;;;;;24.20;45.00;;;;;;5082172;28;19908;-62
2022/08/31 06:31:46;;;;;;;;;;;24.20;45.10;;;;;;5112413;28;19912;-62
2022/08/31 06:34:12;;;;;;;;;;;24.20;45.00;;;;;;5113346;28;19908;-62
2022/08/31 06:36:37;;;;;;;;;;;24.20;45.00;;;;;;5094820;28;19908;-62
2022/08/31 06:39:03;;;;;;;;;;;24.20;45.10;;;;;;5112746;28;20327;-62
2022/08/31 06:41:32;;;;;;;;;;;24.20;45.20;;;;;;5091106;28;19919;-62
2022/08/31 06:43:58;;;;;;;;;;;24.10;45.30;;;;;;5082026;28;19912;-62
2022/08/31 06:46:24;;;;;;;;;;;24.00;45.40;;;;;;5105563;28;19923;-62
2022/08/31 06:48:52;;;;;;;;;;;24.00;45.60;;;;;;5110065;28;19963;-61
2022/08/31 06:51:17;;;;;;;;;;;24.10;45.70;;;;;;5105704;28;19970;-60
2022/08/31 06:53:43;;;;;;;;;;;24.00;46.00;;;;;;5105151;27;20375;-61
2022/08/31 06:56:10;;;;;;;;;;;24.00;45.90;;;;;;5107164;28;19920;-63
2022/08/31 06:58:35;;;;;;;;;;;24.10;46.00;;;;;;5093743;28;19912;-62
2022/08/31 07:01:05;;;;;;;;;;;24.10;45.90;;;;;;5112744;28;20415;-63
2022/08/31 07:03:33;;;;;;;;;;;24.10;45.90;;;;;;5112368;28;19930;-63
2022/08/31 07:06:01;;;;;;;;;;;24.10;45.90;;;;;;5109394;28;20045;-63
2022/08/31 07:08:26;;;;;;;;;;;24.20;46.00;;;;;;5091546;28;20264;-61
2022/08/31 07:10:52;;;;;;;;;;;24.10;46.00;;;;;;5107023;28;19926;-62
2022/08/31 07:13:17;;;;;;;;;;;24.10;46.10;;;;;;5109360;28;19960;-62
2022/08/31 07:15:43;;;;;;;;;;;24.20;46.80;;;;;;5089111;28;20334;-61
2022/08/31 07:18:08;;;;;;;;;;;24.20;46.10;;;;;;5091879;28;20375;-61
2022/08/31 07:20:34;;;;;;;;;;;24.20;46.20;;;;;;5090424;28;19918;-61
2022/08/31 07:22:59;;;;;;;;;;;24.10;46.30;;;;;;5085159;28;19924;-63
2022/08/31 07:25:25;;;;;;;;;;;24.10;46.40;;;;;;5082452;28;20355;-62
2022/08/31 07:27:54;;;;;;;;;;;24.10;46.40;;;;;;5080515;28;19981;-64
2022/08/31 07:30:22;;;;;;;;;;;24.20;46.40;;;;;;5045834;28;19927;-63
2022/08/31 07:32:49;;;;;;;;;;;24.10;46.30;;;;;;5090798;28;20099;-63
2022/08/31 07:35:15;;;;;;;;;;;24.10;46.30;;;;;;5054258;28;19927;-63
2022/08/31 07:43:09;;;;;;;;;;;24.20;46.30;;;;;;5081629;28;20275;-63
2022/08/31 07:45:35;;;;;;;;;;;24.20;46.90;;;;;;5079361;28;19916;-63
2022/08/31 07:48:00;;;;;;;;;;;24.20;46.20;;;;;;5082668;28;19915;-63
2022/08/31 07:50:26;;;;;;;;;;;24.20;46.20;;;;;;5080406;28;20055;-63
2022/08/31 07:52:53;;;;;;;;;;;24.20;46.20;;;;;;5060002;28;19926;-64
2022/08/31 07:55:18;;;;;;;;;;;24.20;46.20;;;;;;5081031;28;19919;-64
2022/08/31 07:57:44;;;;;;;;;;;24.20;46.20;;;;;;5062882;28;19922;-64
2022/08/31 08:00:13;;;;;;;;;;;24.30;46.30;;;;;;5084758;28;19924;-64
2022/08/31 08:02:39;;;;;;;;;;;24.30;46.20;;;;;;5081129;28;19923;-63
2022/08/31 08:05:06;;;;;;;;;;;24.30;46.20;;;;;;5066800;28;19920;-63
2022/08/31 08:07:32;;;;;;;;;;;24.30;46.30;;;;;;5062928;28;19922;-64
2022/08/31 08:09:59;;;;;;;;;;;24.30;46.30;;;;;;5067910;28;20028;-64
2022/08/31 08:12:26;;;;;;;;;;;24.20;46.20;;;;;;5080120;28;19912;-64
2022/08/31 08:14:55;;;;;;;;;;;24.30;46.30;;;;;;5072489;28;19920;-64
2022/08/31 08:17:21;;;;;;;;;;;24.30;46.20;;;;;;5078573;28;19912;-64
2022/08/31 08:19:46;;;;;;;;;;;24.30;46.20;;;;;;5081382;28;19915;-64
2022/08/31 08:22:11;;;;;;;;;;;24.30;46.20;;;;;;5082639;28;19960;-64
2022/08/31 08:24:38;;;;;;;;;;;24.30;46.20;;;;;;5086717;28;19920;-63
2022/08/31 08:27:04;;;;;;;;;;;24.40;46.30;;;;;;5084603;28;19912;-64
2022/08/31 08:29:29;;;;;;;;;;;24.30;46.10;;;;;;5080605;28;19933;-64
2022/08/31 08:31:55;;;;;;;;;;;24.30;46.00;;;;;;5077552;28;19970;-63
2022/08/31 08:34:20;;;;;;;;;;;24.30;46.00;;;;;;5081087;28;19924;-64
2022/08/31 08:36:46;;;;;;;;;;;24.40;46.00;;;;;;5082044;28;19916;-64
2022/08/31 08:39:11;;;;;;;;;;;24.40;46.10;;;;;;5065119;28;19909;-63
2022/08/31 08:41:37;;;;;;;;;;;24.40;46.00;;;;;;5081530;28;19912;-64
2022/08/31 08:44:04;;;;;;;;;;;24.50;46.00;;;;;;5077874;28;19916;-64
2022/08/31 08:46:31;;;;;;;;;;;24.40;45.80;;;;;;5082730;28;20365;-63
2022/08/31 08:48:58;;;;;;;;;;;24.50;45.90;;;;;;5068430;28;19919;-63
2022/08/31 08:51:25;;;;;;;;;;;24.50;46.00;;;;;;5079945;28;19920;-64
2022/08/31 08:53:51;;;;;;;;;;;24.50;46.00;;;;;;5085106;28;20402;-64
2022/08/31 08:56:17;;;;;;;;;;;24.50;46.10;;;;;;5081502;28;19955;-64
2022/08/31 08:58:42;;;;;;;;;;;24.40;46.10;;;;;;5080089;28;19912;-64
2022/08/31 09:01:10;;;;;;;;;;;24.40;46.20;;;;;;5080005;28;19920;-64
2022/08/31 09:03:48;;;;;;;;;;;24.40;46.30;;;;;;5085812;28;19919;-64
2022/08/31 09:06:32;;;;;;;;;;;24.30;46.20;;;;;;5081672;28;19923;-63
2022/08/31 09:09:07;;;;;;;;;;;24.30;46.30;;;;;;5083357;28;19973;-64
2022/08/31 09:11:45;;;;;;;;;;;24.30;46.30;;;;;;5088086;28;19912;-64
2022/08/31 09:14:17;;;;;;;;;;;24.30;46.30;;;;;;5084063;28;19961;-64
2022/08/31 09:16:46;;;;;;;;;;;24.30;46.40;;;;;;5090331;28;20326;-64
2022/08/31 09:19:14;;;;;;;;;;;24.20;46.40;;;;;;5086946;28;20359;-63
2022/08/31 09:21:52;;;;;;;;;;;24.30;46.30;;;;;;5072313;28;19924;-64
2022/08/31 09:24:19;;;;;;;;;;;24.40;46.20;;;;;;5084566;28;19938;-64
2022/08/31 09:27:17;;;;;;;;;;;24.40;46.20;;;;;;5082328;28;20007;-64
2022/08/31 09:29:46;;;;;;;;;;;24.30;46.10;;;;;;5083780;28;19912;-64
2022/08/31 09:32:21;;;;;;;;;;;24.40;46.00;;;;;;5082203;28;19916;-64
2022/08/31 09:34:54;;;;;;;;;;;24.40;45.90;;;;;;5089708;28;19924;-64
2022/08/31 09:37:21;;;;;;;;;;;24.30;45.60;;;;;;5067330;28;19927;-64
2022/08/31 09:39:47;;;;;;;;;;;24.40;45.80;;;;;;5087593;28;19919;-64
2022/08/31 09:42:15;;;;;;;;;;;24.30;45.70;;;;;;5069867;28;20295;-63
2022/08/31 09:44:41;;;;;;;;;;;24.30;45.80;;;;;;5083452;28;20287;-64
2022/08/31 09:47:12;;;;;;;;;;;24.40;45.80;;;;;;5084568;28;19912;-64
2022/08/31 09:49:37;;;;;;;;;;;24.40;45.70;;;;;;5083766;28;20025;-63
2022/08/31 09:55:27;;;;;;;;;;;24.40;45.60;;;;;;5024154;28;19935;-64
2022/08/31 09:57:55;;;;;;;;;;;24.50;45.50;;;;;;5012018;28;19913;-64
2022/08/31 10:00:30;;;;;;;;;;;24.40;45.40;;;;;;5053536;28;19916;-64
2022/08/31 10:02:56;;;;;;;;;;;24.40;45.30;;;;;;5085519;28;19912;-64
2022/08/31 10:05:30;;;;;;;;;;;24.30;45.20;;;;;;5069460;28;19990;-64
2022/08/31 10:08:03;;;;;;;;;;;24.30;45.30;;;;;;5089393;28;20314;-64
2022/08/31 10:10:33;;;;;;;;;;;24.30;45.30;;;;;;5088021;28;20650;-64
2022/08/31 10:13:00;;;;;;;;;;;24.30;45.40;;;;;;5087781;28;20340;-64
2022/08/31 10:15:27;;;;;;;;;;;24.30;45.30;;;;;;5088068;28;19986;-64
2022/08/31 10:17:55;;;;;;;;;;;24.30;45.20;;;;;;5083944;28;19918;-64
2022/08/31 10:20:22;;;;;;;;;;;24.40;45.40;;;;;;5083598;28;20295;-64
2022/08/31 10:22:49;;;;;;;;;;;24.40;45.20;;;;;;5092753;28;20284;-64
2022/08/31 10:25:41;;;;;;;;;;;24.40;45.10;;;;;;5083779;28;19924;-63
2022/08/31 10:28:30;;;;;;;;;;;24.50;45.10;;;;;;5078666;28;20347;-63
2022/08/31 10:30:58;;;;;;;;;;;24.60;45.20;;;;;;5073344;28;19919;-64
2022/08/31 10:35:01;;;;;;;;;;;24.60;45.10;;;;;;5084064;28;20459;-63
2022/08/31 10:36:19;;;;;;;;;;;24.50;44.90;;;;;;5083743;28;19954;-63
2022/08/31 10:38:45;;;;;;;;;;;24.60;45.10;;;;;;5084943;28;20453;-63
2022/08/31 10:41:12;;;;;;;;;;;24.60;45.10;;;;;;5084566;28;20006;-64
2022/08/31 10:43:45;;;;;;;;;;;24.60;44.90;;;;;;5081596;28;19958;-63
2022/08/31 10:46:11;;;;;;;;;;;24.60;45.00;;;;;;5098082;28;19978;-65
2022/08/31 10:48:49;;;;;;;;;;;24.60;45.00;;;;;;5084450;28;19916;-63
2022/08/31 10:51:18;;;;;;;;;;;24.50;45.10;;;;;;5090618;28;19970;-64
2022/08/31 10:53:52;;;;;;;;;;;24.50;45.20;;;;;;5084678;28;19912;-64
2022/08/31 10:56:19;;;;;;;;;;;24.40;45.40;;;;;;5085406;28;20006;-64
2022/08/31 10:58:54;;;;;;;;;;;24.40;45.50;;;;;;5082516;28;20058;-63
2022/08/31 11:01:22;;;;;;;;;;;24.40;45.40;;;;;;5080946;28;19916;-63
2022/08/31 11:03:47;;;;;;;;;;;24.30;45.40;;;;;;5097927;28;19917;-63
2022/08/31 11:06:19;;;;;;;;;;;24.40;45.40;;;;;;5076472;28;19920;-64
2022/08/31 11:09:00;;;;;;;;;;;24.50;45.10;;;;;;5094027;27;19920;-63
2022/08/31 11:11:35;;;;;;;;;;;24.50;45.00;;;;;;5082140;28;19912;-63
2022/08/31 11:14:13;;;;;;;;;;;24.60;45.10;;;;;;5062743;28;20035;-64
2022/08/31 11:16:49;;;;;;;;;;;24.70;45.00;;;;;;5081091;28;20001;-63
2022/08/31 11:19:49;;;;;;;;;;;24.70;44.90;;;;;;5104247;28;19916;-63
2022/08/31 11:22:33;;;;;;;;;;;24.70;44.90;;;;;;5065801;28;19948;-63
2022/08/31 11:25:23;;;;;;;;;;;24.70;44.80;;;;;;5081644;28;19912;-64
2022/08/31 11:28:09;;;;;;;;;;;24.70;44.80;;;;;;5081925;28;20311;-63
2022/08/31 11:30:36;;;;;;;;;;;24.70;44.90;;;;;;5098782;28;19919;-64
2022/08/31 11:33:06;;;;;;;;;;;24.70;44.90;;;;;;5085820;28;19916;-64
2022/08/31 11:35:48;;;;;;;;;;;24.70;44.80;;;;;;5083828;28;20093;-64
2022/08/31 11:38:34;;;;;;;;;;;24.70;44.90;;;;;;5099545;28;19950;-64
2022/08/31 11:41:01;;;;;;;;;;;24.70;45.00;;;;;;5097011;28;19920;-64
2022/08/31 11:43:30;;;;;;;;;;;24.70;45.00;;;;;;5100162;28;19947;-64
2022/08/31 11:46:00;;;;;;;;;;;24.70;44.80;;;;;;5086394;28;19912;-63
2022/08/31 11:48:50;;;;;;;;;;;24.80;44.80;;;;;;5068683;28;19912;-64
2022/08/31 11:51:31;;;;;;;;;;;24.80;44.90;;;;;;5107335;27;19921;-63
2022/08/31 11:53:57;;;;;;;;;;;24.70;44.90;;;;;;5085122;28;19916;-64
2022/08/31 11:56:35;;;;;;;;;;;24.70;45.00;;;;;;5071836;28;19916;-64
2022/08/31 11:59:21;;;;;;;;;;;24.70;45.00;;;;;;5101016;28;19927;-64
2022/08/31 12:01:47;;;;;;;;;;;24.80;44.90;;;;;;5080995;28;19919;-64
2022/08/31 12:04:46;;;;;;;;;;;24.90;44.80;;;;;;5082649;28;19946;-64
2022/08/31 12:07:23;;;;;;;;;;;24.90;44.80;;;;;;5042038;28;20010;-64
2022/08/31 12:10:07;;;;;;;;;;;24.90;44.80;;;;;;5102734;28;19923;-64
2022/08/31 12:12:48;;;;;;;;;;;24.90;44.70;;;;;;5102911;28;19912;-64
2022/08/31 12:15:19;;;;;;;;;;;24.90;44.60;;;;;;5069917;28;19936;-64
2022/08/31 12:17:55;;;;;;;;;;;24.90;44.50;;;;;;5081210;28;19920;-63
2022/08/31 12:20:24;;;;;;;;;;;24.90;44.70;;;;;;5084700;28;19974;-63
2022/08/31 12:26:00;;;;;;;;;;;24.80;44.80;;;;;;5083161;28;19923;-63
2022/08/31 12:28:28;;;;;;;;;;;24.80;44.90;;;;;;5098244;28;19916;-63
2022/08/31 12:30:54;;;;;;;;;;;24.80;44.90;;;;;;5094918;28;20874;-64
2022/08/31 12:33:26;;;;;;;;;;;24.80;44.90;;;;;;5083631;28;19911;-64
2022/08/31 12:35:52;;;;;;;;;;;24.80;45.00;;;;;;5083873;28;19916;-64
2022/08/31 12:38:19;;;;;;;;;;;24.80;45.00;;;;;;5083749;28;20347;-64
2022/08/31 12:40:53;;;;;;;;;;;24.80;44.70;;;;;;5078998;28;19920;-64
2022/08/31 12:43:20;;;;;;;;;;;24.90;44.60;;;;;;5088519;28;21602;-63
2022/08/31 12:45:48;;;;;;;;;;;24.90;44.70;;;;;;5082274;27;20436;-63
2022/08/31 12:48:32;;;;;;;;;;;25.00;44.50;;;;;;5088848;28;19935;-63
2022/08/31 12:51:16;;;;;;;;;;;25.10;44.60;;;;;;5083489;28;19919;-64
2022/08/31 12:53:50;;;;;;;;;;;25.10;44.30;;;;;;5097395;28;19934;-64
2022/08/31 12:56:16;;;;;;;;;;;25.10;44.10;;;;;;5088839;28;20375;-63
2022/08/31 12:58:49;;;;;;;;;;;25.20;44.20;;;;;;5107062;28;19913;-63
2022/08/31 13:01:17;;;;;;;;;;;25.20;44.00;;;;;;5075259;28;20029;-63
2022/08/31 13:03:45;;;;;;;;;;;25.20;44.10;;;;;;5086782;28;19916;-63
2022/08/31 13:06:12;;;;;;;;;;;25.20;44.00;;;;;;5088015;28;20256;-64
2022/08/31 13:08:39;;;;;;;;;;;25.30;44.20;;;;;;5073079;28;19922;-64
2022/08/31 13:11:31;;;;;;;;;;;25.30;44.10;;;;;;5087258;28;20299;-64
2022/08/31 13:14:26;;;;;;;;;;;25.30;44.00;;;;;;5097538;28;19911;-63
2022/08/31 13:16:52;;;;;;;;;;;25.40;43.80;;;;;;5060132;28;20347;-63
2022/08/31 13:19:25;;;;;;;;;;;25.40;43.40;;;;;;5068534;28;19966;-63
2022/08/31 13:21:51;;;;;;;;;;;25.30;42.30;;;;;;5087608;28;19924;-63
2022/08/31 13:24:22;;;;;;;;;;;25.20;42.00;;;;;;5086565;28;19965;-63
2022/08/31 13:26:47;;;;;;;;;;;25.10;41.60;;;;;;5069451;28;19923;-63
2022/08/31 13:29:16;;;;;;;;;;;25.00;41.20;;;;;;5049985;28;19920;-63
2022/08/31 13:31:46;;;;;;;;;;;25.00;40.90;;;;;;5084226;28;19912;-63
2022/08/31 13:34:12;;;;;;;;;;;24.90;40.70;;;;;;5083143;28;19981;-63
2022/08/31 13:36:45;;;;;;;;;;;24.90;40.80;;;;;;5079967;28;19924;-64
2022/08/31 13:39:13;;;;;;;;;;;24.90;40.50;;;;;;5091831;28;20415;-64
2022/08/31 13:41:42;;;;;;;;;;;24.90;40.60;;;;;;5069401;28;19923;-64
2022/08/31 13:44:09;;;;;;;;;;;24.90;40.60;;;;;;5065727;28;19912;-63
2022/08/31 13:46:41;;;;;;;;;;;24.90;40.60;;;;;;5053849;28;19920;-63
2022/08/31 13:49:07;;;;;;;;;;;24.80;40.50;;;;;;5062929;28;20395;-63
2022/08/31 13:51:33;;;;;;;;;;;24.80;40.60;;;;;;5064467;28;19962;-64
2022/08/31 13:53:58;;;;;;;;;;;24.80;40.60;;;;;;5069404;28;19923;-63
2022/08/31 13:59:23;;;;;;;;;;;24.70;40.50;;;;;;5091484;28;19973;-64
2022/08/31 14:02:07;;;;;;;;;;;24.70;40.30;;;;;;5066108;28;19912;-64
2022/08/31 14:04:48;;;;;;;;;;;24.70;40.40;;;;;;5083829;28;19965;-64
2022/08/31 14:07:20;;;;;;;;;;;24.70;40.40;;;;;;5083229;28;19934;-63
2022/08/31 14:10:10;;;;;;;;;;;24.70;40.50;;;;;;5084452;28;19916;-63
2022/08/31 14:12:44;;;;;;;;;;;24.70;40.60;;;;;;5085045;28;20010;-63
2022/08/31 14:15:13;;;;;;;;;;;24.70;40.60;;;;;;5077401;28;19956;-63
2022/08/31 14:17:40;;;;;;;;;;;24.70;40.70;;;;;;5103783;28;19916;-63
2022/08/31 14:20:24;;;;;;;;;;;24.80;41.10;;;;;;5087147;28;19911;-63
2022/08/31 14:22:49;;;;;;;;;;;24.80;41.20;;;;;;5105861;28;19921;-64
2022/08/31 14:25:18;;;;;;;;;;;24.90;40.90;;;;;;5106125;28;20237;-63
2022/08/31 14:27:44;;;;;;;;;;;24.80;40.70;;;;;;5103733;28;19916;-63
2022/08/31 14:30:09;;;;;;;;;;;24.90;40.60;;;;;;5085546;28;19927;-63
2022/08/31 14:32:35;;;;;;;;;;;25.00;40.70;;;;;;5084068;28;19916;-63
2022/08/31 14:35:01;;;;;;;;;;;25.10;40.90;;;;;;5104136;28;19923;-63
2022/08/31 14:37:28;;;;;;;;;;;25.10;41.00;;;;;;5102807;28;20320;-63
2022/08/31 14:39:56;;;;;;;;;;;25.10;40.60;;;;;;5089566;28;19923;-63
2022/08/31 14:42:35;;;;;;;;;;;25.10;40.40;;;;;;5085817;28;19920;-63